Time;durP1;ratioP1;P1;durP2;ratioP2;P2;SDS_P1;SDS_P2;PMS_P1;PMS_P2;Temp;Humidity;BMP_temperature;BMP_pressure;BME280_temperature;BME280_humidity;BME280_pressure;Samples;Min_cycle;Max_cycle;Signal;HPM_P1;HPM_P2
2023/02/08 00:01:32;;;;;;;52.20;32.83;;;-3.70;99.90;;;;;;5045818;28;20406;-75
2023/02/08 00:03:58;;;;;;;46.40;30.13;;;-3.70;99.90;;;;;;5050036;28;20047;-75
2023/02/08 00:06:25;;;;;;;47.65;30.45;;;-3.50;99.90;;;;;;5046209;28;20134;-72
2023/02/08 00:08:52;;;;;;;55.17;35.20;;;-3.30;99.90;;;;;;5040786;28;20044;-74
2023/02/08 00:11:18;;;;;;;43.53;30.55;;;-3.30;99.90;;;;;;5053202;28;20571;-75
2023/02/08 00:13:45;;;;;;;47.08;30.02;;;-3.30;99.90;;;;;;5050090;28;20258;-75
2023/02/08 00:16:13;;;;;;;47.10;29.67;;;-3.30;99.90;;;;;;5047896;28;20131;-74
2023/02/08 00:18:41;;;;;;;45.33;30.42;;;-3.50;99.90;;;;;;5048426;28;20056;-75
2023/02/08 00:21:13;;;;;;;43.53;28.25;;;-3.60;99.90;;;;;;5048321;28;20043;-75
2023/02/08 00:23:40;;;;;;;44.60;29.23;;;-3.60;99.90;;;;;;5046660;28;20059;-73
2023/02/08 00:26:08;;;;;;;38.22;27.63;;;-3.60;99.90;;;;;;5050081;28;20037;-75
2023/02/08 00:28:34;;;;;;;40.65;27.95;;;-3.50;99.90;;;;;;5044294;28;20044;-76
2023/02/08 00:31:02;;;;;;;34.88;26.10;;;-3.70;99.90;;;;;;5046321;28;20131;-75
2023/02/08 00:33:28;;;;;;;37.78;26.48;;;-3.80;99.90;;;;;;5036437;28;20308;-77
2023/02/08 00:36:00;;;;;;;37.70;27.13;;;-3.90;99.90;;;;;;5051949;28;20060;-75
2023/02/08 00:38:27;;;;;;;39.45;28.02;;;-3.90;99.90;;;;;;5040635;28;20561;-76
2023/02/08 00:40:54;;;;;;;42.88;29.25;;;-4.10;99.90;;;;;;5048407;28;20329;-75
2023/02/08 00:43:21;;;;;;;41.05;29.77;;;-4.10;99.90;;;;;;5033074;28;20059;-76
2023/02/08 00:45:53;;;;;;;45.88;30.15;;;-4.20;99.90;;;;;;5048873;28;20040;-74
2023/02/08 00:48:20;;;;;;;50.92;33.65;;;-4.20;99.90;;;;;;5054200;28;20074;-76
2023/02/08 00:51:17;;;;;;;47.00;30.80;;;-4.30;99.90;;;;;;5035039;28;20394;-74
2023/02/08 00:53:44;;;;;;;49.45;30.92;;;-4.30;99.90;;;;;;5037338;28;20045;-74
2023/02/08 00:56:13;;;;;;;50.55;30.55;;;-4.10;99.90;;;;;;5047953;28;20044;-75
2023/02/08 00:58:41;;;;;;;45.00;30.35;;;-4.10;99.90;;;;;;5050291;28;20045;-75
2023/02/08 01:01:08;;;;;;;43.20;28.52;;;-4.10;99.90;;;;;;5049267;28;20063;-73
2023/02/08 01:03:37;;;;;;;55.40;31.02;;;-4.00;99.90;;;;;;5049129;28;20059;-76
2023/02/08 01:06:06;;;;;;;48.97;28.58;;;-4.00;99.90;;;;;;5031430;28;20090;-73
2023/02/08 01:08:33;;;;;;;48.67;28.13;;;-3.80;99.90;;;;;;5045511;28;20115;-76
2023/02/08 01:11:14;;;;;;;44.63;27.65;;;-3.90;99.90;;;;;;5053021;28;20045;-76
2023/02/08 01:13:41;;;;;;;39.58;28.08;;;-4.00;99.90;;;;;;5038910;28;20068;-77
2023/02/08 01:16:16;;;;;;;45.08;29.60;;;-4.00;99.90;;;;;;5040378;28;20048;-75
2023/02/08 01:18:45;;;;;;;46.67;29.38;;;-3.90;99.90;;;;;;5035137;28;20052;-76
2023/02/08 01:21:14;;;;;;;44.85;28.08;;;-3.70;99.90;;;;;;5040626;28;20052;-76
2023/02/08 01:23:41;;;;;;;46.60;29.88;;;-3.60;99.90;;;;;;5043446;28;20047;-76
2023/02/08 01:26:09;;;;;;;43.00;29.08;;;-3.60;99.90;;;;;;5060592;28;20435;-76
2023/02/08 01:28:38;;;;;;;43.58;27.95;;;-3.60;99.90;;;;;;5056926;28;20545;-76
2023/02/08 01:31:12;;;;;;;43.55;28.92;;;-3.60;99.90;;;;;;5045941;28;20040;-75
2023/02/08 01:33:39;;;;;;;38.10;26.88;;;-3.60;99.90;;;;;;5055353;28;20050;-76
2023/02/08 01:36:07;;;;;;;37.92;26.92;;;-3.60;99.90;;;;;;5037466;28;20047;-76
2023/02/08 01:38:35;;;;;;;38.92;26.90;;;-3.70;99.90;;;;;;5044497;28;20707;-75
2023/02/08 01:41:09;;;;;;;43.53;28.83;;;-3.70;99.90;;;;;;5053863;28;20101;-76
2023/02/08 01:44:10;;;;;;;34.10;26.33;;;-3.70;99.90;;;;;;5051736;28;20811;-75
2023/02/08 01:46:50;;;;;;;39.53;28.60;;;-3.60;99.90;;;;;;5050626;28;20099;-75
2023/02/08 01:49:26;;;;;;;42.72;27.80;;;-3.70;99.90;;;;;;5054382;28;20095;-73
2023/02/08 01:51:59;;;;;;;;;;;-3.70;99.90;;;;;;5054793;28;20135;-74
2023/02/08 01:54:35;;;;;;;43.20;27.60;;;-3.70;99.90;;;;;;5052072;28;19924;-75
2023/02/08 01:57:02;;;;;;;40.85;27.38;;;-3.80;99.90;;;;;;5040068;28;20069;-74
2023/02/08 01:59:45;;;;;;;42.47;28.88;;;-3.90;99.90;;;;;;5038918;28;20036;-75
2023/02/08 02:02:15;;;;;;;45.80;28.80;;;-3.90;99.90;;;;;;5038290;28;20148;-76
2023/02/08 02:04:42;;;;;;;42.03;28.98;;;-3.80;99.90;;;;;;5040929;28;20135;-75
2023/02/08 02:07:09;;;;;;;44.90;31.48;;;-3.80;99.90;;;;;;5054675;28;20036;-75
2023/02/08 02:10:07;;;;;;;50.75;32.20;;;-3.70;99.90;;;;;;5057109;28;20485;-76
2023/02/08 02:12:35;;;;;;;55.30;33.58;;;-3.60;99.90;;;;;;5038100;28;20037;-76
2023/02/08 02:15:03;;;;;;;48.28;31.73;;;-3.50;99.90;;;;;;5042747;28;20132;-76
2023/02/08 02:17:30;;;;;;;51.67;30.98;;;-3.40;99.90;;;;;;5053316;28;20050;-74
2023/02/08 02:20:15;;;;;;;43.17;31.98;;;-3.30;99.90;;;;;;5040909;28;20052;-75
2023/02/08 02:22:44;;;;;;;;;;;-3.30;99.90;;;;;;5049844;28;20056;-75
2023/02/08 02:25:23;;;;;;;48.03;30.52;;;-3.20;99.90;;;;;;5050972;28;19951;-75
2023/02/08 02:28:02;;;;;;;38.75;28.95;;;-3.20;99.90;;;;;;5059607;28;20465;-76
2023/02/08 02:30:51;;;;;;;39.00;29.70;;;-3.10;99.90;;;;;;5057072;28;20548;-76
2023/02/08 02:33:52;;;;;;;44.08;30.83;;;-3.00;99.90;;;;;;5045140;28;20529;-76
2023/02/08 02:36:34;;;;;;;40.80;30.73;;;-2.90;99.90;;;;;;5038548;28;20052;-75
2023/02/08 02:39:13;;;;;;;38.00;29.63;;;-2.90;99.90;;;;;;5054728;28;20887;-77
2023/02/08 02:45:11;;;;;;;35.42;28.88;;;-2.80;99.90;;;;;;5052000;28;20053;-74
2023/02/08 02:47:52;;;;;;;37.17;28.33;;;-3.00;99.90;;;;;;5054737;28;20044;-74
2023/02/08 02:50:42;;;;;;;33.28;27.70;;;-3.10;99.90;;;;;;5045039;28;20045;-74
2023/02/08 02:53:18;;;;;;;38.45;28.77;;;-3.20;99.90;;;;;;5032611;28;20045;-73
2023/02/08 02:55:55;;;;;;;39.50;30.48;;;-3.30;99.90;;;;;;5061053;28;20131;-75
2023/02/08 02:58:23;;;;;;;42.00;29.30;;;-3.30;99.90;;;;;;5058686;28;20060;-76
2023/02/08 03:00:54;;;;;;;44.25;29.45;;;-3.60;99.90;;;;;;5051528;28;20041;-75
2023/02/08 03:03:24;;;;;;;41.65;29.33;;;-3.60;99.90;;;;;;5048155;28;20128;-75
2023/02/08 03:05:56;;;;;;;41.53;30.17;;;-3.50;99.90;;;;;;5035205;28;20049;-75
2023/02/08 03:08:45;;;;;;;40.95;29.63;;;-3.50;99.90;;;;;;5052991;28;20068;-75
2023/02/08 03:11:27;;;;;;;42.58;29.40;;;-3.40;99.90;;;;;;5039129;28;20374;-75
2023/02/08 03:14:25;;;;;;;43.28;29.80;;;-3.40;99.90;;;;;;5034117;28;20135;-75
2023/02/08 03:17:15;;;;;;;42.72;30.08;;;-3.40;99.90;;;;;;5051255;28;20040;-76
2023/02/08 03:19:56;;;;;;;37.00;28.92;;;-3.40;99.90;;;;;;5047599;28;20640;-74
2023/02/08 03:22:35;;;;;;;37.53;27.60;;;-3.50;99.90;;;;;;5055864;28;20045;-75
2023/02/08 03:25:16;;;;;;;42.97;29.48;;;-3.70;99.90;;;;;;5048623;28;20434;-75
2023/02/08 03:27:54;;;;;;;42.17;29.17;;;-3.70;99.90;;;;;;5051864;28;20052;-75
2023/02/08 03:30:34;;;;;;;48.00;29.77;;;-3.70;99.90;;;;;;5048030;28;20139;-75
2023/02/08 03:33:35;;;;;;;45.33;28.40;;;-3.60;99.90;;;;;;5038963;28;20044;-75
2023/02/08 03:36:13;;;;;;;50.58;31.98;;;-3.70;99.90;;;;;;5047507;28;20044;-76
2023/02/08 03:38:43;;;;;;;45.92;29.13;;;-3.70;99.90;;;;;;5048099;28;20131;-75
2023/02/08 03:41:16;;;;;;;47.17;31.77;;;-3.70;99.90;;;;;;5036983;28;20040;-75
2023/02/08 03:44:04;;;;;;;43.45;29.75;;;-3.60;99.90;;;;;;5052417;28;20660;-76
2023/02/08 03:46:38;;;;;;;46.80;30.88;;;-3.50;99.90;;;;;;5043665;28;20045;-75
2023/02/08 03:49:11;;;;;;;39.85;29.77;;;-3.50;99.90;;;;;;5054160;28;20083;-75
2023/02/08 03:51:39;;;;;;;38.05;28.20;;;-3.60;99.90;;;;;;5046942;28;20542;-76
2023/02/08 03:54:11;;;;;;;32.85;25.95;;;-3.70;99.90;;;;;;5035770;28;20045;-75
2023/02/08 03:56:52;;;;;;;37.35;27.88;;;-3.70;99.90;;;;;;5049714;28;20040;-75
2023/02/08 03:59:24;;;;;;;32.72;26.85;;;-3.90;99.90;;;;;;5050307;28;20052;-76
2023/02/08 04:01:59;;;;;;;39.72;26.50;;;-4.00;99.90;;;;;;5047593;28;20044;-75
2023/02/08 04:04:31;;;;;;;34.13;26.38;;;-4.00;99.90;;;;;;5053219;28;20040;-76
2023/02/08 04:06:58;;;;;;;35.10;26.05;;;-4.10;99.90;;;;;;5057630;28;20508;-74
2023/02/08 04:09:24;;;;;;;32.35;25.95;;;-4.10;99.90;;;;;;5052317;28;20573;-76
2023/02/08 04:11:51;;;;;;;42.25;27.98;;;-4.20;99.90;;;;;;5054728;28;20041;-75
2023/02/08 04:14:18;;;;;;;38.75;26.80;;;-4.40;99.90;;;;;;5036145;28;20063;-75
2023/02/08 04:16:44;;;;;;;35.75;28.13;;;-4.50;99.90;;;;;;5045811;28;20778;-75
2023/02/08 04:19:11;;;;;;;44.35;29.25;;;-4.40;99.90;;;;;;5056679;28;20041;-76
2023/02/08 04:21:38;;;;;;;40.03;27.75;;;-4.30;99.90;;;;;;5049703;28;20497;-75
2023/02/08 04:24:04;;;;;;;37.58;26.17;;;-4.30;99.90;;;;;;5054202;28;20035;-75
2023/02/08 04:26:31;;;;;;;35.90;26.75;;;-4.20;99.90;;;;;;5054163;28;20041;-75
2023/02/08 04:28:58;;;;;;;36.92;25.55;;;-4.20;99.90;;;;;;5068402;28;20052;-75
2023/02/08 04:31:25;;;;;;;38.65;26.13;;;-4.20;99.90;;;;;;5045025;28;20049;-76
2023/02/08 04:33:54;;;;;;;37.90;26.30;;;-4.20;99.90;;;;;;5052400;28;20043;-75
2023/02/08 04:36:20;;;;;;;34.55;25.00;;;-4.20;99.90;;;;;;5047848;28;20048;-75
2023/02/08 04:38:47;;;;;;;35.30;23.88;;;-4.20;99.90;;;;;;5051857;28;20588;-77
2023/02/08 04:41:14;;;;;;;32.63;23.35;;;-4.30;99.90;;;;;;5053609;28;20040;-74
2023/02/08 04:43:40;;;;;;;37.65;24.50;;;-4.30;99.90;;;;;;5048109;28;20048;-75
2023/02/08 04:46:07;;;;;;;39.55;25.88;;;-4.40;99.90;;;;;;5041505;28;20427;-75
2023/02/08 04:48:34;;;;;;;36.03;24.50;;;-4.30;99.90;;;;;;5044540;28;20041;-75
2023/02/08 04:51:00;;;;;;;33.50;24.30;;;-4.30;99.90;;;;;;5041429;28;20051;-75
2023/02/08 04:53:27;;;;;;;39.15;24.35;;;-4.30;99.90;;;;;;5046268;28;20053;-76
2023/02/08 04:55:57;;;;;;;35.13;24.40;;;-4.30;99.90;;;;;;5043404;28;20044;-76
2023/02/08 04:58:24;;;;;;;36.05;24.67;;;-4.30;99.90;;;;;;5036823;28;20461;-74
2023/02/08 05:00:50;;;;;;;39.05;26.13;;;-4.40;99.90;;;;;;5031003;28;20467;-76
2023/02/08 05:03:19;;;;;;;35.38;25.88;;;-4.30;99.90;;;;;;5054718;28;20032;-75
2023/02/08 05:05:46;;;;;;;41.35;27.40;;;-4.20;99.90;;;;;;5042465;28;20490;-76
2023/02/08 05:08:12;;;;;;;42.53;29.88;;;-4.20;99.90;;;;;;5052974;28;20049;-76
2023/02/08 05:10:44;;;;;;;44.35;31.15;;;-4.10;99.90;;;;;;5035898;28;20044;-75
2023/02/08 05:13:11;;;;;;;41.40;29.42;;;-4.20;99.90;;;;;;5052927;28;20052;-76
2023/02/08 05:15:38;;;;;;;43.15;30.85;;;-4.20;99.90;;;;;;5045274;28;20033;-76
2023/02/08 05:18:04;;;;;;;45.30;31.73;;;-4.20;99.90;;;;;;5046659;28;20423;-76
2023/02/08 05:20:32;;;;;;;43.10;30.58;;;-4.40;99.90;;;;;;5039856;28;20059;-76
2023/02/08 05:22:59;;;;;;;42.13;30.02;;;-4.50;99.90;;;;;;5045680;28;20136;-76
2023/02/08 05:25:26;;;;;;;41.30;29.08;;;-4.40;99.90;;;;;;5032836;28;20055;-76
2023/02/08 05:27:52;;;;;;;41.08;29.45;;;-4.30;99.90;;;;;;5052108;28;20028;-76
2023/02/08 05:30:19;;;;;;;42.20;30.00;;;-4.40;99.90;;;;;;5043980;28;20128;-75
2023/02/08 05:32:46;;;;;;;41.22;29.13;;;-4.30;99.90;;;;;;5039622;28;20047;-76
2023/02/08 05:35:13;;;;;;;40.08;30.50;;;-4.40;99.90;;;;;;5039835;28;20053;-75
2023/02/08 05:37:39;;;;;;;42.10;29.50;;;-4.40;99.90;;;;;;5040458;28;20068;-76
2023/02/08 05:40:06;;;;;;;42.80;31.80;;;-4.60;99.90;;;;;;5045991;28;20044;-76
2023/02/08 05:42:33;;;;;;;44.30;31.05;;;-4.70;99.90;;;;;;5054738;28;20045;-75
2023/02/08 05:45:00;;;;;;;41.85;30.85;;;-4.70;99.90;;;;;;5040640;28;20071;-75
2023/02/08 05:47:27;;;;;;;43.42;30.98;;;-4.70;99.90;;;;;;5031906;28;20063;-75
2023/02/08 05:49:53;;;;;;;48.78;30.55;;;-4.60;99.90;;;;;;5039254;28;20449;-76
2023/02/08 05:52:20;;;;;;;42.90;30.10;;;-4.50;99.90;;;;;;5039882;28;20234;-76
2023/02/08 05:54:47;;;;;;;48.22;35.20;;;-4.60;99.90;;;;;;5038652;28;20048;-75
2023/02/08 05:57:13;;;;;;;49.40;32.80;;;-4.50;99.90;;;;;;5049760;28;20049;-75
2023/02/08 05:59:40;;;;;;;44.65;33.20;;;-4.50;99.90;;;;;;5054530;28;20029;-75
2023/02/08 06:02:07;;;;;;;42.63;30.60;;;-4.40;99.90;;;;;;5047884;28;20501;-75
2023/02/08 06:04:33;;;;;;;43.78;33.10;;;-4.40;99.90;;;;;;5029945;28;20037;-76
2023/02/08 06:07:03;;;;;;;43.40;32.88;;;-4.50;99.90;;;;;;5047735;28;20049;-76
2023/02/08 06:09:29;;;;;;;50.03;32.10;;;-4.50;99.90;;;;;;5051382;28;20040;-76
2023/02/08 06:11:56;;;;;;;50.17;33.17;;;-4.60;99.90;;;;;;5050451;28;20041;-76
2023/02/08 06:14:23;;;;;;;50.10;34.13;;;-4.50;99.90;;;;;;5044775;28;20379;-76
2023/02/08 06:16:49;;;;;;;49.25;33.65;;;-4.60;99.90;;;;;;5048634;28;20605;-76
2023/02/08 06:19:16;;;;;;;46.83;33.78;;;-4.50;99.90;;;;;;5054397;28;20041;-76
2023/02/08 06:21:43;;;;;;;54.00;36.15;;;-4.40;99.90;;;;;;5053081;28;20627;-75
2023/02/08 06:24:10;;;;;;;59.20;39.17;;;-4.50;99.90;;;;;;5044425;28;20041;-74
2023/02/08 06:26:37;;;;;;;58.75;38.60;;;-4.40;99.90;;;;;;5056537;28;20056;-74
2023/02/08 06:29:04;;;;;;;57.75;37.15;;;-4.30;99.90;;;;;;5047821;28;20128;-75
2023/02/08 06:31:30;;;;;;;61.15;38.53;;;-4.20;99.90;;;;;;5037835;28;20041;-76
2023/02/08 06:33:57;;;;;;;61.78;37.33;;;-4.10;99.90;;;;;;5053142;28;20127;-75
2023/02/08 06:36:24;;;;;;;52.33;36.75;;;-4.10;99.90;;;;;;5031232;28;20695;-76
2023/02/08 06:38:50;;;;;;;53.88;37.10;;;-4.10;99.90;;;;;;5054208;28;20517;-75
2023/02/08 06:41:17;;;;;;;59.60;38.72;;;-4.30;99.90;;;;;;5038572;28;20048;-76
2023/02/08 06:43:43;;;;;;;71.82;42.17;;;-4.50;99.90;;;;;;5054236;28;20081;-76
2023/02/08 06:46:10;;;;;;;79.15;43.38;;;-4.50;99.90;;;;;;5048991;28;20148;-75
2023/02/08 06:48:37;;;;;;;73.28;41.42;;;-4.60;99.90;;;;;;5052590;28;20059;-75
2023/02/08 06:51:04;;;;;;;73.47;41.15;;;-4.60;99.90;;;;;;5053150;28;20715;-75
2023/02/08 06:53:31;;;;;;;73.18;43.22;;;-4.70;99.90;;;;;;5053557;28;20429;-76
2023/02/08 06:55:57;;;;;;;75.60;42.97;;;-4.70;99.90;;;;;;5040010;28;20198;-74
2023/02/08 06:58:24;;;;;;;61.88;38.72;;;-4.60;99.90;;;;;;5057511;28;20059;-76
2023/02/08 07:00:51;;;;;;;57.00;38.45;;;-4.50;99.90;;;;;;5052939;28;20033;-75
2023/02/08 07:03:18;;;;;;;56.92;39.30;;;-4.30;99.90;;;;;;5053993;28;20151;-76
2023/02/08 07:05:44;;;;;;;60.60;40.33;;;-4.20;99.90;;;;;;5039749;28;20051;-76
2023/02/08 07:08:30;;;;;;;65.18;41.15;;;-4.10;99.90;;;;;;5052351;28;20053;-74
2023/02/08 07:10:57;;;;;;;60.78;39.55;;;-4.10;99.90;;;;;;5048325;28;20033;-75
2023/02/08 07:13:23;;;;;;;56.13;38.63;;;-4.10;99.90;;;;;;5044607;28;20159;-76
2023/02/08 07:15:50;;;;;;;58.22;39.88;;;-4.10;99.90;;;;;;5056173;28;20045;-73
2023/02/08 07:18:16;;;;;;;56.55;38.35;;;-4.20;99.90;;;;;;5054466;28;20044;-75
2023/02/08 07:20:43;;;;;;;67.75;40.70;;;-4.10;99.90;;;;;;5034218;28;20044;-75
2023/02/08 07:23:10;;;;;;;63.63;39.65;;;-4.20;99.90;;;;;;5055577;28;20044;-74
2023/02/08 07:25:36;;;;;;;67.85;42.17;;;-4.20;99.90;;;;;;5058068;28;20044;-76
2023/02/08 07:28:03;;;;;;;77.75;44.80;;;-4.20;99.90;;;;;;5038402;28;20711;-75
2023/02/08 07:30:30;;;;;;;74.80;43.83;;;-4.40;99.90;;;;;;5051295;28;20498;-75
2023/02/08 07:32:56;;;;;;;62.42;41.88;;;-4.50;99.90;;;;;;5052739;28;20036;-76
2023/02/08 07:35:23;;;;;;;64.55;44.35;;;-4.50;99.90;;;;;;5054798;28;20047;-74
2023/02/08 07:37:49;;;;;;;66.50;42.78;;;-4.60;99.90;;;;;;5050122;28;20036;-74
2023/02/08 07:40:16;;;;;;;69.82;43.47;;;-4.60;99.90;;;;;;5053812;28;20189;-73
2023/02/08 07:42:43;;;;;;;59.63;43.67;;;-4.60;99.90;;;;;;5039573;28;20045;-75
2023/02/08 07:45:21;;;;;;;57.83;41.58;;;-4.50;99.90;;;;;;5039574;28;20044;-75
2023/02/08 07:47:47;;;;;;;57.42;41.25;;;-4.40;99.90;;;;;;5035139;28;20437;-74
2023/02/08 07:50:15;;;;;;;60.65;43.20;;;-4.30;99.90;;;;;;5041944;28;20060;-73
2023/02/08 07:52:44;;;;;;;56.97;41.20;;;-4.20;99.90;;;;;;5043710;28;20033;-75
2023/02/08 07:55:15;;;;;;;61.72;41.65;;;-4.20;99.90;;;;;;5039520;28;20044;-76
2023/02/08 07:57:47;;;;;;;55.85;40.60;;;-4.10;99.90;;;;;;5049540;28;20037;-75
2023/02/08 08:00:16;;;;;;;54.90;40.70;;;-4.00;99.90;;;;;;5041869;28;20094;-75
2023/02/08 08:02:43;;;;;;;56.10;40.67;;;-3.90;99.90;;;;;;5047153;28;20036;-76
2023/02/08 08:05:10;;;;;;;60.30;40.30;;;-3.80;99.90;;;;;;5041572;28;20066;-75
2023/02/08 08:07:37;;;;;;;56.42;41.92;;;-3.80;99.90;;;;;;5046789;28;20044;-75
2023/02/08 08:10:04;;;;;;;60.53;41.00;;;-3.80;99.90;;;;;;5048185;28;20037;-75
2023/02/08 08:12:31;;;;;;;56.95;41.00;;;-3.60;99.90;;;;;;5041941;28;20401;-76
2023/02/08 08:14:58;;;;;;;53.70;39.03;;;-3.50;99.90;;;;;;5036045;28;20032;-76
2023/02/08 08:17:24;;;;;;;63.70;42.28;;;-3.30;99.90;;;;;;5038777;28;20043;-75
2023/02/08 08:19:51;;;;;;;52.97;39.08;;;-3.10;99.90;;;;;;5034450;28;20041;-75
2023/02/08 08:22:18;;;;;;;51.72;38.45;;;-3.00;99.90;;;;;;5044738;28;20110;-75
2023/02/08 08:24:44;;;;;;;58.70;39.22;;;-2.90;99.90;;;;;;5046463;28;20045;-76
2023/02/08 08:27:11;;;;;;;49.95;41.45;;;-2.80;99.90;;;;;;5041723;28;20069;-75
2023/02/08 08:29:38;;;;;;;59.00;41.88;;;-2.60;99.90;;;;;;5044717;28;20029;-76
2023/02/08 08:32:06;;;;;;;57.25;42.75;;;-2.50;99.90;;;;;;5039092;28;20456;-76
2023/02/08 08:34:33;;;;;;;57.30;43.63;;;-2.30;99.90;;;;;;5041286;28;20048;-76
2023/02/08 08:37:01;;;;;;;57.55;43.63;;;-2.00;99.90;;;;;;5049515;28;20041;-76
2023/02/08 08:39:28;;;;;;;67.60;51.17;;;-1.70;99.90;;;;;;5041017;28;20048;-76
2023/02/08 08:41:59;;;;;;;63.95;49.92;;;-1.30;99.90;;;;;;5045314;28;20037;-75
2023/02/08 08:44:26;;;;;;;65.13;52.33;;;-0.90;99.90;;;;;;5048176;28;20049;-75
2023/02/08 08:46:56;;;;;;;56.13;47.92;;;-0.30;99.90;;;;;;5040418;28;20207;-75
2023/02/08 08:49:24;;;;;;;47.17;42.40;;;0.10;99.90;;;;;;5040917;28;20059;-75
2023/02/08 08:51:52;;;;;;;46.92;42.00;;;0.50;99.90;;;;;;5045789;28;20037;-75
2023/02/08 08:54:19;;;;;;;47.85;43.13;;;0.90;99.90;;;;;;5041654;28;20144;-75
2023/02/08 08:56:46;;;;;;;46.53;41.70;;;1.10;99.90;;;;;;5050181;28;20055;-76
2023/02/08 08:59:13;;;;;;;45.00;40.50;;;1.10;99.90;;;;;;5047344;28;20053;-75
2023/02/08 09:01:41;;;;;;;45.30;40.65;;;1.20;99.90;;;;;;5046082;28;20048;-75
2023/02/08 09:04:09;;;;;;;44.05;39.78;;;1.30;99.90;;;;;;5041626;28;20356;-75
2023/02/08 09:06:36;;;;;;;47.03;42.33;;;1.40;99.90;;;;;;5046673;28;20041;-75
2023/02/08 09:09:03;;;;;;;47.38;42.75;;;1.40;99.90;;;;;;5040002;28;20045;-75
2023/02/08 09:11:32;;;;;;;45.30;40.55;;;1.50;99.90;;;;;;5046476;28;20056;-75
2023/02/08 09:14:01;;;;;;;48.15;43.25;;;1.50;99.90;;;;;;5046208;28;20977;-75
2023/02/08 09:16:31;;;;;;;46.05;41.85;;;1.50;99.90;;;;;;5040496;28;20124;-75
2023/02/08 09:19:06;;;;;;;47.28;42.53;;;1.50;99.90;;;;;;5040553;28;20127;-75
2023/02/08 09:21:33;;;;;;;48.15;43.53;;;1.40;99.90;;;;;;5042721;28;20064;-75
2023/02/08 09:24:01;;;;;;;49.38;44.40;;;1.50;99.90;;;;;;5048474;28;20036;-75
2023/02/08 09:26:28;;;;;;;49.38;44.35;;;1.60;99.90;;;;;;5052536;28;20214;-75
2023/02/08 09:28:55;;;;;;;48.78;44.33;;;1.50;99.90;;;;;;5048968;28;20056;-75
2023/02/08 09:31:35;;;;;;;49.15;44.50;;;1.80;99.90;;;;;;5049743;28;20684;-75
2023/02/08 09:34:03;;;;;;;48.90;44.50;;;1.90;99.90;;;;;;5042517;28;20049;-74
2023/02/08 09:36:36;;;;;;;48.88;44.33;;;2.20;99.90;;;;;;5046457;28;20041;-75
2023/02/08 09:39:09;;;;;;;49.15;44.65;;;2.30;99.90;;;;;;5043766;28;20052;-75
2023/02/08 09:41:51;;;;;;;51.13;46.10;;;2.70;99.90;;;;;;5042730;28;20045;-75
2023/02/08 09:44:30;;;;;;;48.25;43.83;;;2.90;99.90;;;;;;5055436;28;20056;-75
2023/02/08 09:47:17;;;;;;;49.53;45.03;;;2.50;99.90;;;;;;5051147;28;20059;-74
2023/02/08 09:49:55;;;;;;;51.72;46.95;;;2.70;99.90;;;;;;5047889;28;20044;-75
2023/02/08 09:52:59;;;;;;;48.45;44.15;;;2.60;99.90;;;;;;5045283;28;20049;-75
2023/02/08 09:55:43;;;;;;;48.80;44.40;;;2.80;99.90;;;;;;4990604;28;20046;-74
2023/02/08 09:58:24;;;;;;;50.55;45.85;;;3.20;99.90;;;;;;5053755;28;20041;-75
2023/02/08 10:00:52;;;;;;;55.40;51.05;;;3.70;99.90;;;;;;5052229;28;20047;-74
2023/02/08 10:03:40;;;;;;;56.80;52.10;;;3.70;99.90;;;;;;5045964;28;20037;-75
2023/02/08 10:06:10;;;;;;;60.05;55.33;;;4.10;99.90;;;;;;5024519;28;20045;-75
2023/02/08 10:08:38;;;;;;;56.22;51.53;;;3.90;99.90;;;;;;5042343;28;20116;-75
2023/02/08 10:11:19;;;;;;;54.33;49.97;;;4.10;99.90;;;;;;5039566;28;20460;-75
2023/02/08 10:14:23;;;;;;;58.15;53.40;;;3.90;99.90;;;;;;5044717;28;20658;-75
2023/02/08 10:17:28;;;;;;;55.97;51.40;;;3.90;99.90;;;;;;5046531;28;20047;-75
2023/02/08 10:20:15;;;;;;;54.92;50.47;;;4.40;99.90;;;;;;5042511;28;20524;-74
2023/02/08 10:22:52;;;;;;;55.78;51.15;;;4.40;99.90;;;;;;5037263;28;20409;-75
2023/02/08 10:25:52;;;;;;;57.75;53.15;;;4.60;99.90;;;;;;5043798;28;20537;-75
2023/02/08 10:28:31;;;;;;;56.00;51.63;;;4.60;99.90;;;;;;5037132;28;20063;-74
2023/02/08 10:31:24;;;;;;;57.38;52.65;;;4.50;99.90;;;;;;5045851;28;20044;-74
2023/02/08 10:33:56;;;;;;;57.70;53.30;;;4.70;99.90;;;;;;5044137;28;20530;-75
2023/02/08 10:36:28;;;;;;;55.83;51.50;;;4.90;99.90;;;;;;5040417;28;20041;-74
2023/02/08 10:38:57;;;;;;;55.50;51.20;;;4.90;99.90;;;;;;5050367;28;20498;-74
2023/02/08 10:41:30;;;;;;;55.30;51.20;;;4.90;99.90;;;;;;5045689;28;20036;-75
2023/02/08 10:44:00;;;;;;;56.17;52.08;;;5.10;99.90;;;;;;5044596;28;20137;-75
2023/02/08 10:46:46;;;;;;;56.30;52.13;;;5.20;99.90;;;;;;5045174;28;20041;-74
2023/02/08 10:49:33;;;;;;;57.60;53.22;;;4.80;99.90;;;;;;5045353;28;20041;-74
2023/02/08 10:52:01;;;;;;;55.97;51.60;;;4.70;99.90;;;;;;5044985;28;20496;-74
2023/02/08 10:54:28;;;;;;;54.47;50.50;;;5.10;99.90;;;;;;5042012;28;20029;-74
2023/02/08 10:56:56;;;;;;;56.65;52.25;;;5.20;99.90;;;;;;5042207;28;20071;-75
2023/02/08 10:59:37;;;;;;;53.20;49.10;;;5.20;99.90;;;;;;5052978;28;20132;-74
2023/02/08 11:02:17;;;;;;;54.00;50.08;;;5.30;99.90;;;;;;5045042;28;20048;-75
2023/02/08 11:05:08;;;;;;;54.10;50.20;;;5.00;99.90;;;;;;5041999;28;20041;-74
2023/02/08 11:07:35;;;;;;;56.60;52.30;;;4.80;99.90;;;;;;5043791;28;20041;-74
2023/02/08 11:10:19;;;;;;;55.08;50.80;;;5.10;99.90;;;;;;5047195;28;20068;-74
2023/02/08 11:13:18;;;;;;;55.22;50.92;;;5.40;99.90;;;;;;5034902;28;20072;-75
2023/02/08 11:15:46;;;;;;;58.90;54.33;;;5.30;99.90;;;;;;5036666;28;20033;-74
2023/02/08 11:18:38;;;;;;;57.25;52.75;;;5.40;99.90;;;;;;5046674;28;21215;-74
2023/02/08 11:21:28;;;;;;;58.40;53.90;;;4.80;99.90;;;;;;5035239;28;20049;-73
2023/02/08 11:23:56;;;;;;;57.45;53.15;;;4.40;99.90;;;;;;5028895;28;20056;-74
2023/02/08 11:26:37;;;;;;;57.65;53.40;;;4.60;99.90;;;;;;5042443;28;20095;-74
2023/02/08 11:29:14;;;;;;;56.10;52.00;;;4.30;99.90;;;;;;5049479;28;20044;-74
2023/02/08 11:32:01;;;;;;;56.60;52.35;;;4.00;99.90;;;;;;5042137;28;20072;-74
2023/02/08 11:34:31;;;;;;;58.05;53.45;;;4.10;99.90;;;;;;5043516;28;20652;-74
2023/02/08 11:37:02;;;;;;;54.53;50.67;;;4.00;99.90;;;;;;5037224;28;20041;-73
2023/02/08 11:39:39;;;;;;;56.55;52.38;;;4.10;99.90;;;;;;5049690;28;20037;-74
2023/02/08 11:42:06;;;;;;;58.67;54.08;;;4.00;99.90;;;;;;5050584;28;20041;-74
2023/02/08 11:44:40;;;;;;;56.83;52.38;;;3.90;99.90;;;;;;5043098;28;20411;-74
2023/02/08 11:47:09;;;;;;;58.20;53.47;;;4.20;99.90;;;;;;5037828;28;20502;-74
2023/02/08 11:49:38;;;;;;;59.47;55.10;;;4.20;99.90;;;;;;5045010;28;20326;-74
2023/02/08 11:52:17;;;;;;;58.65;54.28;;;4.10;99.90;;;;;;5044231;28;20060;-73
2023/02/08 11:54:44;;;;;;;57.13;52.78;;;4.20;99.90;;;;;;5046120;28;20044;-74
2023/02/08 11:57:19;;;;;;;57.05;52.60;;;4.00;99.90;;;;;;5050239;28;20044;-74
2023/02/08 11:59:51;;;;;;;54.78;50.75;;;4.00;99.90;;;;;;5052771;28;20504;-74
2023/02/08 12:02:36;;;;;;;59.33;54.72;;;4.20;99.90;;;;;;5044666;28;20045;-74
2023/02/08 12:05:26;;;;;;;55.35;51.05;;;4.10;99.90;;;;;;5042298;28;20048;-74
2023/02/08 12:08:22;;;;;;;53.95;49.75;;;4.40;99.90;;;;;;5046595;28;20040;-74
2023/02/08 12:11:21;;;;;;;53.42;49.08;;;4.30;99.90;;;;;;5045533;28;20036;-74
2023/02/08 12:13:57;;;;;;;53.95;49.92;;;4.40;99.90;;;;;;5024722;28;20094;-74
2023/02/08 12:16:51;;;;;;;54.05;49.85;;;4.40;99.90;;;;;;5038104;28;20087;-74
2023/02/08 12:19:46;;;;;;;52.42;48.50;;;4.50;99.90;;;;;;5044811;28;20045;-74
2023/02/08 12:22:24;;;;;;;55.13;50.60;;;4.70;99.90;;;;;;5040132;28;20465;-75
2023/02/08 12:25:28;;;;;;;52.25;48.45;;;4.70;99.90;;;;;;5046974;28;20044;-74
2023/02/08 12:28:29;;;;;;;51.30;47.20;;;4.70;99.90;;;;;;5046151;28;20527;-74
2023/02/08 12:31:26;;;;;;;50.78;46.78;;;4.90;99.90;;;;;;5033610;28;20040;-74
2023/02/08 12:34:24;;;;;;;52.55;48.40;;;5.00;99.90;;;;;;5038216;28;20052;-74
2023/02/08 12:43:31;;;;;;;49.92;46.38;;;5.80;99.90;;;;;;5043946;28;20040;-75
2023/02/08 12:46:10;;;;;;;48.05;44.35;;;5.80;99.90;;;;;;5022835;28;20068;-75
2023/02/08 12:48:59;;;;;;;48.05;44.75;;;5.50;99.90;;;;;;5044760;28;20142;-74
2023/02/08 12:51:38;;;;;;;49.38;45.63;;;5.30;99.90;;;;;;5039162;28;20040;-75
2023/02/08 12:54:12;;;;;;;47.60;43.72;;;5.40;99.90;;;;;;5038645;28;20072;-74
2023/02/08 12:56:44;;;;;;;46.47;43.08;;;5.60;99.90;;;;;;5042648;28;20038;-75
2023/02/08 12:59:34;;;;;;;47.55;44.00;;;5.70;99.90;;;;;;5040399;28;20041;-75
2023/02/08 13:02:10;;;;;;;49.88;46.25;;;5.90;99.90;;;;;;5042429;28;20041;-75
2023/02/08 13:04:41;;;;;;;49.88;46.10;;;6.00;99.90;;;;;;5043737;28;20135;-75
2023/02/08 13:07:15;;;;;;;52.42;48.53;;;6.20;99.90;;;;;;5043414;28;20131;-74
2023/02/08 13:09:57;;;;;;;47.78;44.40;;;5.90;99.90;;;;;;5044836;28;20150;-72